Time;durP1;ratioP1;P1;durP2;ratioP2;P2;SDS_P1;SDS_P2;PMS_P1;PMS_P2;Temp;Humidity;BMP_temperature;BMP_pressure;BME280_temperature;BME280_humidity;BME280_pressure;Samples;Min_cycle;Max_cycle;Signal;HPM_P1;HPM_P2
2023/03/29 00:00:30;;;;;;;1.05;0.95;;;;;;;;;;10325444;28;20239;-77
2023/03/29 00:05:33;;;;;;;1.52;0.90;;;;;;;;;;10301691;28;20319;-80
2023/03/29 00:10:34;;;;;;;1.00;1.00;;;;;;;;;;10320669;28;20829;-77
2023/03/29 00:15:36;;;;;;;0.85;0.85;;;;;;;;;;10307545;28;20329;-77
2023/03/29 00:20:36;;;;;;;3.60;1.23;;;;;;;;;;10329356;28;20684;-78
2023/03/29 00:25:37;;;;;;;1.30;1.00;;;;;;;;;;10302045;28;20311;-77
2023/03/29 00:30:38;;;;;;;4.32;1.17;;;;;;;;;;10315489;28;20220;-77
2023/03/29 00:35:41;;;;;;;3.17;1.10;;;;;;;;;;10326072;28;20243;-78
2023/03/29 00:40:43;;;;;;;3.80;1.27;;;;;;;;;;10325506;28;20239;-78
2023/03/29 00:45:44;;;;;;;3.30;1.25;;;;;;;;;;10326306;28;20773;-78
2023/03/29 00:50:48;;;;;;;2.05;1.02;;;;;;;;;;10313069;28;20239;-77
2023/03/29 00:55:54;;;;;;;4.53;0.82;;;;;;;;;;10299684;28;20224;-77
2023/03/29 01:01:03;;;;;;;5.88;1.15;;;;;;;;;;10318785;28;20216;-78
2023/03/29 01:06:05;;;;;;;2.80;1.20;;;;;;;;;;10312415;28;20235;-78
2023/03/29 01:11:27;;;;;;;1.67;1.17;;;;;;;;;;10316176;28;20223;-77
2023/03/29 01:16:29;;;;;;;2.55;1.30;;;;;;;;;;10304439;28;20239;-78
2023/03/29 01:21:35;;;;;;;0.95;0.93;;;;;;;;;;10284105;28;20235;-78
2023/03/29 01:26:42;;;;;;;2.75;0.90;;;;;;;;;;10309011;28;20369;-76
2023/03/29 01:31:50;;;;;;;0.90;0.90;;;;;;;;;;10289245;28;20556;-78
2023/03/29 01:36:59;;;;;;;1.77;1.05;;;;;;;;;;10290929;28;20695;-77
2023/03/29 01:42:05;;;;;;;0.93;0.70;;;;;;;;;;10296885;28;20228;-79
2023/03/29 01:47:17;;;;;;;4.75;1.15;;;;;;;;;;10311050;28;20268;-78
2023/03/29 01:52:22;;;;;;;1.98;0.90;;;;;;;;;;10309403;28;20588;-76
2023/03/29 01:57:25;;;;;;;2.15;1.50;;;;;;;;;;10299287;28;20246;-75
2023/03/29 02:02:27;;;;;;;1.08;1.00;;;;;;;;;;10296512;28;20220;-77
2023/03/29 02:07:31;;;;;;;1.35;1.20;;;;;;;;;;10299639;28;20224;-79
2023/03/29 02:12:32;;;;;;;1.80;1.10;;;;;;;;;;10292872;28;20334;-78
2023/03/29 02:17:36;;;;;;;3.95;1.05;;;;;;;;;;10284509;28;20227;-78
2023/03/29 02:22:41;;;;;;;4.80;0.80;;;;;;;;;;10305899;28;20275;-78
2023/03/29 02:27:43;;;;;;;2.00;1.38;;;;;;;;;;10311749;28;20387;-78
2023/03/29 02:33:03;;;;;;;2.53;1.10;;;;;;;;;;10287367;28;20228;-78
2023/03/29 02:38:07;;;;;;;2.85;0.85;;;;;;;;;;10290702;28;20219;-78
2023/03/29 02:43:09;;;;;;;2.88;1.23;;;;;;;;;;10288747;28;20223;-77
2023/03/29 02:48:13;;;;;;;1.55;1.10;;;;;;;;;;10299892;28;20220;-78
2023/03/29 02:53:23;;;;;;;2.22;1.33;;;;;;;;;;10291618;28;20228;-78
2023/03/29 02:58:25;;;;;;;5.18;1.55;;;;;;;;;;10301684;28;20227;-77
2023/03/29 03:03:26;;;;;;;2.50;1.05;;;;;;;;;;10316043;28;20231;-76
2023/03/29 03:08:28;;;;;;;3.10;1.17;;;;;;;;;;10302117;28;20775;-78
2023/03/29 03:13:30;;;;;;;2.30;0.80;;;;;;;;;;10323105;28;20220;-79
2023/03/29 03:18:31;;;;;;;2.55;0.85;;;;;;;;;;10297655;28;20621;-79
2023/03/29 03:23:32;;;;;;;1.05;0.70;;;;;;;;;;10301875;28;20642;-78
2023/03/29 03:28:34;;;;;;;3.20;1.15;;;;;;;;;;10306686;28;20243;-79
2023/03/29 03:33:38;;;;;;;2.83;1.33;;;;;;;;;;10298126;28;20252;-78
2023/03/29 03:39:04;;;;;;;6.72;2.13;;;;;;;;;;10313874;28;20228;-77
2023/03/29 03:44:05;;;;;;;1.58;1.10;;;;;;;;;;10311197;28;20228;-77
2023/03/29 03:49:07;;;;;;;1.52;1.42;;;;;;;;;;10287238;28;20576;-77
2023/03/29 03:54:12;;;;;;;5.78;1.15;;;;;;;;;;10299458;28;20782;-76
2023/03/29 03:59:32;;;;;;;4.05;0.90;;;;;;;;;;10319970;28;20350;-77
2023/03/29 04:04:39;;;;;;;1.58;0.75;;;;;;;;;;10287780;28;20291;-77
2023/03/29 04:09:44;;;;;;;2.42;0.75;;;;;;;;;;10291741;28;20482;-77
2023/03/29 04:15:05;;;;;;;1.17;0.95;;;;;;;;;;10285428;28;20682;-77
2023/03/29 04:20:11;;;;;;;3.03;1.27;;;;;;;;;;10286936;28;20922;-78
2023/03/29 04:25:14;;;;;;;5.50;1.33;;;;;;;;;;10303408;28;20227;-77
2023/03/29 04:30:17;;;;;;;2.05;0.80;;;;;;;;;;10316403;28;20487;-78
2023/03/29 04:35:41;;;;;;;0.90;0.90;;;;;;;;;;10295739;28;20789;-77
2023/03/29 04:40:46;;;;;;;1.05;0.63;;;;;;;;;;10311717;28;20644;-77
2023/03/29 04:46:09;;;;;;;4.65;1.00;;;;;;;;;;10299994;28;20224;-78
2023/03/29 04:51:32;;;;;;;2.80;1.13;;;;;;;;;;10302679;28;20255;-79
2023/03/29 04:56:33;;;;;;;1.60;1.10;;;;;;;;;;10290909;28;20601;-79
2023/03/29 05:02:10;;;;;;;2.67;0.98;;;;;;;;;;10208396;28;20240;-79
2023/03/29 05:07:16;;;;;;;2.92;0.98;;;;;;;;;;10278541;28;20701;-78
2023/03/29 05:12:17;;;;;;;5.38;1.23;;;;;;;;;;10286967;28;20228;-77
2023/03/29 05:17:26;;;;;;;1.10;1.10;;;;;;;;;;10298419;28;20365;-76
2023/03/29 05:22:28;;;;;;;2.90;0.98;;;;;;;;;;10299156;28;20233;-75
2023/03/29 05:27:30;;;;;;;1.25;0.93;;;;;;;;;;10273148;28;20756;-74
2023/03/29 05:32:37;;;;;;;1.65;1.40;;;;;;;;;;10270989;28;20239;-74
2023/03/29 05:37:40;;;;;;;1.20;0.90;;;;;;;;;;10287111;28;20374;-78
2023/03/29 05:42:42;;;;;;;2.50;0.95;;;;;;;;;;10268810;28;20224;-78
2023/03/29 05:47:45;;;;;;;1.23;0.80;;;;;;;;;;10278145;28;20702;-79
2023/03/29 05:52:46;;;;;;;2.22;1.10;;;;;;;;;;10293759;28;20228;-77
2023/03/29 05:57:47;;;;;;;1.40;1.23;;;;;;;;;;10312093;28;20232;-77
2023/03/29 06:02:51;;;;;;;1.17;0.80;;;;;;;;;;10290367;28;20220;-77
2023/03/29 06:07:53;;;;;;;2.47;0.80;;;;;;;;;;10298039;28;20773;-76
2023/03/29 06:13:22;;;;;;;1.33;1.10;;;;;;;;;;10313581;28;20220;-76
2023/03/29 06:18:23;;;;;;;1.02;1.00;;;;;;;;;;10298960;28;21602;-77
2023/03/29 06:23:25;;;;;;;1.38;1.23;;;;;;;;;;10276677;28;22080;-77
2023/03/29 06:28:27;;;;;;;1.48;1.13;;;;;;;;;;10314274;28;20223;-78
2023/03/29 06:33:29;;;;;;;4.68;1.15;;;;;;;;;;10301653;28;20228;-78
2023/03/29 06:38:51;;;;;;;4.55;1.80;;;;;;;;;;10315929;28;20366;-76
2023/03/29 06:44:12;;;;;;;1.00;0.88;;;;;;;;;;10295862;28;20773;-77
2023/03/29 06:49:39;;;;;;;1.35;1.00;;;;;;;;;;10288131;28;20307;-77
2023/03/29 06:54:56;;;;;;;1.48;1.38;;;;;;;;;;10288455;28;20226;-78
2023/03/29 07:00:00;;;;;;;1.65;1.55;;;;;;;;;;10315558;28;20773;-77
2023/03/29 07:05:22;;;;;;;2.05;1.27;;;;;;;;;;10311602;28;20220;-78
2023/03/29 07:10:27;;;;;;;1.55;1.33;;;;;;;;;;10302532;28;20689;-78
2023/03/29 07:15:54;;;;;;;1.48;1.42;;;;;;;;;;10310228;28;20236;-77
2023/03/29 07:21:08;;;;;;;2.05;1.42;;;;;;;;;;10321457;28;20215;-76
2023/03/29 07:26:09;;;;;;;2.65;1.10;;;;;;;;;;10303819;28;20228;-77
2023/03/29 07:31:12;;;;;;;3.10;1.80;;;;;;;;;;10323136;28;20780;-77
2023/03/29 07:36:19;;;;;;;2.00;1.90;;;;;;;;;;10290318;28;20240;-78
2023/03/29 07:41:21;;;;;;;2.03;1.92;;;;;;;;;;10303697;28;20224;-77
2023/03/29 07:46:32;;;;;;;3.38;2.00;;;;;;;;;;10301638;28;20228;-75
2023/03/29 07:51:35;;;;;;;2.90;2.25;;;;;;;;;;10324823;28;20747;-78
2023/03/29 07:56:41;;;;;;;1.83;1.73;;;;;;;;;;10313604;28;20500;-77
2023/03/29 08:01:59;;;;;;;1.90;1.70;;;;;;;;;;10304174;28;20235;-76
2023/03/29 08:07:06;;;;;;;2.05;1.95;;;;;;;;;;10291227;28;20302;-77
2023/03/29 08:12:36;;;;;;;6.03;2.53;;;;;;;;;;10267797;28;20251;-77
2023/03/29 08:17:38;;;;;;;2.55;2.35;;;;;;;;;;10293585;28;20225;-77
2023/03/29 08:22:40;;;;;;;2.47;2.38;;;;;;;;;;10306487;28;20242;-78
2023/03/29 08:28:04;;;;;;;2.20;2.10;;;;;;;;;;10303179;28;20404;-77
2023/03/29 08:33:19;;;;;;;3.10;2.80;;;;;;;;;;10308032;28;20300;-78
2023/03/29 08:38:25;;;;;;;3.05;2.83;;;;;;;;;;10299567;28;20232;-77
2023/03/29 08:43:45;;;;;;;2.63;2.42;;;;;;;;;;10301387;28;20332;-75
2023/03/29 08:49:19;;;;;;;3.10;2.90;;;;;;;;;;10292720;28;20500;-77
2023/03/29 08:54:26;;;;;;;2.88;2.60;;;;;;;;;;10294720;28;20802;-76
2023/03/29 08:59:45;;;;;;;3.85;2.67;;;;;;;;;;10322942;28;20224;-77
2023/03/29 09:04:51;;;;;;;2.72;2.60;;;;;;;;;;10302276;28;20278;-75
2023/03/29 09:10:13;;;;;;;3.20;3.00;;;;;;;;;;10302930;28;20744;-77
2023/03/29 09:15:18;;;;;;;2.78;2.55;;;;;;;;;;10303294;28;20227;-77
2023/03/29 09:20:44;;;;;;;5.10;2.53;;;;;;;;;;10309448;28;20232;-77
2023/03/29 09:26:24;;;;;;;2.58;2.45;;;;;;;;;;10310350;28;20596;-77
2023/03/29 09:31:43;;;;;;;1.92;1.92;;;;;;;;;;10123310;29;20250;-77
2023/03/29 09:36:51;;;;;;;2.08;1.98;;;;;;;;;;10276790;28;20319;-77
2023/03/29 09:41:57;;;;;;;3.20;2.28;;;;;;;;;;10306690;28;20857;-77
2023/03/29 09:47:20;;;;;;;2.03;1.92;;;;;;;;;;10305952;28;20216;-78
2023/03/29 09:52:22;;;;;;;2.10;2.00;;;;;;;;;;10303884;28;20356;-79
2023/03/29 09:57:34;;;;;;;2.60;2.40;;;;;;;;;;10307598;28;20221;-79
2023/03/29 10:02:36;;;;;;;2.75;2.65;;;;;;;;;;10300236;28;20310;-77
2023/03/29 10:07:43;;;;;;;2.20;2.10;;;;;;;;;;10290581;28;20224;-76
2023/03/29 10:12:49;;;;;;;3.25;2.42;;;;;;;;;;10303520;28;20223;-77
2023/03/29 10:17:56;;;;;;;4.10;2.05;;;;;;;;;;10300147;28;20377;-77
2023/03/29 10:22:58;;;;;;;3.20;2.10;;;;;;;;;;10318604;28;20230;-77
2023/03/29 10:28:20;;;;;;;7.32;2.20;;;;;;;;;;10313934;28;20227;-78
2023/03/29 10:33:22;;;;;;;2.08;1.67;;;;;;;;;;10286703;28;20366;-78
2023/03/29 10:38:26;;;;;;;2.50;2.38;;;;;;;;;;10274037;28;20629;-78
2023/03/29 10:43:33;;;;;;;1.90;1.80;;;;;;;;;;10324511;28;20228;-77
2023/03/29 10:48:35;;;;;;;2.35;2.25;;;;;;;;;;10287330;28;20228;-77
2023/03/29 10:53:36;;;;;;;5.55;2.00;;;;;;;;;;10314970;28;20725;-78
2023/03/29 10:58:55;;;;;;;1.50;1.50;;;;;;;;;;10296536;28;20270;-79
2023/03/29 11:04:06;;;;;;;3.38;2.60;;;;;;;;;;10305986;28;20228;-79
2023/03/29 11:09:17;;;;;;;1.83;1.80;;;;;;;;;;10312088;28;20342;-80
2023/03/29 11:14:27;;;;;;;2.75;1.60;;;;;;;;;;10295255;28;20673;-77
2023/03/29 11:19:46;;;;;;;4.30;1.77;;;;;;;;;;10307225;28;20227;-77
2023/03/29 11:25:04;;;;;;;1.52;1.38;;;;;;;;;;10301221;28;20603;-77
2023/03/29 11:30:12;;;;;;;2.65;1.73;;;;;;;;;;10321656;28;20273;-77
2023/03/29 11:35:36;;;;;;;1.85;1.75;;;;;;;;;;10300778;28;20212;-78
2023/03/29 11:40:41;;;;;;;1.95;1.90;;;;;;;;;;10318414;28;20216;-77
2023/03/29 11:45:48;;;;;;;1.77;1.67;;;;;;;;;;10319494;28;20271;-77
2023/03/29 11:50:52;;;;;;;1.83;1.73;;;;;;;;;;10326383;28;20221;-78
2023/03/29 11:55:54;;;;;;;2.15;1.70;;;;;;;;;;10310628;28;20223;-77
2023/03/29 12:01:03;;;;;;;1.98;1.98;;;;;;;;;;10297477;28;20224;-78
2023/03/29 12:06:18;;;;;;;2.00;1.90;;;;;;;;;;10301372;28;20244;-77
2023/03/29 12:11:26;;;;;;;5.18;1.83;;;;;;;;;;10326194;28;20227;-76
2023/03/29 12:16:27;;;;;;;1.40;1.38;;;;;;;;;;10284737;28;20220;-77
2023/03/29 12:21:29;;;;;;;4.07;1.60;;;;;;;;;;10281153;28;20244;-78
2023/03/29 12:26:41;;;;;;;2.03;1.92;;;;;;;;;;10312372;28;20231;-78
2023/03/29 12:31:42;;;;;;;2.33;1.55;;;;;;;;;;10324324;28;20231;-77
2023/03/29 12:36:51;;;;;;;2.45;2.35;;;;;;;;;;10325375;28;20313;-77
2023/03/29 12:42:15;;;;;;;1.83;1.73;;;;;;;;;;10316918;28;20622;-78
2023/03/29 12:47:44;;;;;;;2.80;1.98;;;;;;;;;;10298396;28;20311;-77
2023/03/29 12:52:45;;;;;;;2.92;2.17;;;;;;;;;;10324585;28;20307;-78
2023/03/29 12:58:06;;;;;;;1.73;1.63;;;;;;;;;;10319234;28;20701;-78
2023/03/29 13:03:26;;;;;;;1.80;1.70;;;;;;;;;;10293491;28;20545;-75
2023/03/29 13:08:35;;;;;;;1.75;1.75;;;;;;;;;;10309256;28;20540;-77
2023/03/29 13:13:37;;;;;;;1.98;1.88;;;;;;;;;;10300375;28;20227;-77
2023/03/29 13:18:45;;;;;;;1.45;1.17;;;;;;;;;;10317686;28;20224;-77
2023/03/29 13:23:59;;;;;;;1.73;1.60;;;;;;;;;;10311838;28;20221;-77
2023/03/29 13:29:21;;;;;;;1.95;1.85;;;;;;;;;;10307628;28;20334;-77
2023/03/29 13:34:28;;;;;;;2.33;2.17;;;;;;;;;;10316767;28;20591;-75
2023/03/29 13:39:31;;;;;;;2.63;1.70;;;;;;;;;;10319190;28;20266;-77
2023/03/29 13:44:44;;;;;;;1.42;1.38;;;;;;;;;;10307720;28;23627;-78
2023/03/29 13:49:50;;;;;;;3.78;2.03;;;;;;;;;;10322329;28;20220;-78
2023/03/29 13:54:53;;;;;;;1.77;1.55;;;;;;;;;;10308528;28;20227;-79
2023/03/29 14:00:11;;;;;;;2.22;1.67;;;;;;;;;;10308030;28;20220;-79
2023/03/29 14:05:16;;;;;;;1.40;1.40;;;;;;;;;;10301468;28;20315;-79
2023/03/29 14:10:26;;;;;;;1.85;1.75;;;;;;;;;;10322101;28;20209;-77
2023/03/29 14:15:36;;;;;;;3.30;2.10;;;;;;;;;;10316430;28;20238;-78
2023/03/29 14:20:37;;;;;;;1.80;1.70;;;;;;;;;;10317294;28;20788;-80
2023/03/29 14:25:39;;;;;;;1.88;1.50;;;;;;;;;;10297713;28;20240;-79
2023/03/29 14:30:45;;;;;;;1.45;1.30;;;;;;;;;;10323632;28;20224;-79
2023/03/29 14:35:46;;;;;;;2.88;1.40;;;;;;;;;;10301098;28;20306;-79
2023/03/29 14:40:47;;;;;;;1.73;1.30;;;;;;;;;;10294647;28;20592;-80
2023/03/29 14:45:48;;;;;;;1.80;1.80;;;;;;;;;;10288562;28;20235;-79
2023/03/29 14:50:50;;;;;;;1.85;1.35;;;;;;;;;;10327353;28;20234;-79
2023/03/29 14:55:52;;;;;;;2.88;1.60;;;;;;;;;;10312526;28;20228;-76
2023/03/29 15:00:53;;;;;;;2.20;2.10;;;;;;;;;;10297833;28;20224;-77
2023/03/29 15:05:58;;;;;;;3.85;1.75;;;;;;;;;;10292534;28;20228;-79
2023/03/29 15:10:59;;;;;;;1.73;1.60;;;;;;;;;;10314285;28;20224;-79
2023/03/29 15:16:02;;;;;;;1.90;1.90;;;;;;;;;;10309831;28;20338;-79
2023/03/29 15:21:04;;;;;;;2.15;2.00;;;;;;;;;;10302889;28;20224;-80
2023/03/29 15:26:11;;;;;;;2.53;2.40;;;;;;;;;;10293715;28;20239;-80
2023/03/29 15:31:15;;;;;;;2.33;2.22;;;;;;;;;;10295073;28;20288;-81
2023/03/29 15:36:16;;;;;;;1.88;1.88;;;;;;;;;;10289338;28;20319;-83
2023/03/29 15:41:17;;;;;;;2.50;2.10;;;;;;;;;;10315836;28;21013;-79
2023/03/29 15:46:18;;;;;;;2.15;2.05;;;;;;;;;;10295682;28;20220;-81
2023/03/29 15:51:19;;;;;;;2.17;2.17;;;;;;;;;;10314082;28;20609;-79
2023/03/29 15:56:21;;;;;;;2.15;2.05;;;;;;;;;;10319402;28;20289;-80
2023/03/29 16:01:33;;;;;;;2.40;2.30;;;;;;;;;;10297934;28;20315;-78
2023/03/29 16:06:34;;;;;;;1.98;1.90;;;;;;;;;;10321670;28;20266;-80
2023/03/29 16:11:40;;;;;;;1.67;1.58;;;;;;;;;;10321685;28;20228;-78
2023/03/29 16:16:41;;;;;;;2.47;2.38;;;;;;;;;;10326215;28;20323;-78
2023/03/29 16:21:42;;;;;;;3.50;2.33;;;;;;;;;;10313787;28;20228;-81
2023/03/29 16:26:43;;;;;;;4.75;1.85;;;;;;;;;;10311236;28;20231;-79
2023/03/29 16:31:48;;;;;;;2.45;2.35;;;;;;;;;;10315862;28;20236;-79
2023/03/29 16:36:49;;;;;;;2.38;2.10;;;;;;;;;;10294006;28;20247;-79
2023/03/29 16:41:50;;;;;;;2.88;2.63;;;;;;;;;;10305740;28;20315;-80
2023/03/29 16:46:52;;;;;;;3.90;3.60;;;;;;;;;;10305498;28;20231;-79
2023/03/29 16:51:53;;;;;;;5.35;4.47;;;;;;;;;;10306772;28;20225;-78
2023/03/29 16:56:55;;;;;;;3.90;2.90;;;;;;;;;;10308518;28;20243;-79
2023/03/29 17:01:56;;;;;;;3.40;3.20;;;;;;;;;;10314608;28;20710;-79
2023/03/29 17:06:57;;;;;;;4.60;4.25;;;;;;;;;;10319795;28;20235;-79
2023/03/29 17:11:58;;;;;;;2.58;2.53;;;;;;;;;;10295240;28;20234;-80
2023/03/29 17:16:59;;;;;;;2.05;1.75;;;;;;;;;;10275941;28;1369693;-81
2023/03/29 17:22:00;;;;;;;3.20;2.90;;;;;;;;;;10331172;28;20230;-81
2023/03/29 17:27:01;;;;;;;2.83;2.70;;;;;;;;;;10310712;28;20219;-82
2023/03/29 17:32:02;;;;;;;2.85;2.75;;;;;;;;;;10293733;28;20216;-82
2023/03/29 17:37:03;;;;;;;2.38;2.38;;;;;;;;;;10320455;28;20215;-82
2023/03/29 17:42:04;;;;;;;2.72;2.53;;;;;;;;;;10305868;28;20311;-81
2023/03/29 17:47:05;;;;;;;6.72;5.45;;;;;;;;;;10305064;28;20226;-81
2023/03/29 17:52:07;;;;;;;11.43;6.47;;;;;;;;;;10323443;28;20216;-80
2023/03/29 17:57:08;;;;;;;4.93;3.33;;;;;;;;;;10299540;28;20220;-82
2023/03/29 18:02:15;;;;;;;1.60;1.60;;;;;;;;;;10283616;28;20224;-80
2023/03/29 18:07:17;;;;;;;1.80;1.80;;;;;;;;;;10310863;28;20251;-83
2023/03/29 18:12:18;;;;;;;1.65;1.63;;;;;;;;;;10311081;28;21104;-80
2023/03/29 18:17:20;;;;;;;1.95;1.85;;;;;;;;;;10290556;28;20235;-82
2023/03/29 18:22:22;;;;;;;2.08;1.98;;;;;;;;;;10309657;28;20225;-81
2023/03/29 18:27:24;;;;;;;1.90;1.90;;;;;;;;;;10299709;28;20219;-81
2023/03/29 18:32:25;;;;;;;2.25;2.15;;;;;;;;;;10280014;28;21460;-82
2023/03/29 18:37:26;;;;;;;2.15;1.92;;;;;;;;;;10289126;28;20232;-81
2023/03/29 18:42:27;;;;;;;2.35;2.25;;;;;;;;;;10293411;28;20279;-83
2023/03/29 18:47:28;;;;;;;2.75;2.65;;;;;;;;;;10298994;28;20992;-82
2023/03/29 18:52:29;;;;;;;1.92;1.92;;;;;;;;;;10294409;28;20232;-83
2023/03/29 18:57:30;;;;;;;2.00;1.90;;;;;;;;;;10296709;28;20712;-83
2023/03/29 19:02:31;;;;;;;2.20;2.10;;;;;;;;;;10279779;28;20217;-83
2023/03/29 19:07:32;;;;;;;2.35;2.33;;;;;;;;;;10280589;28;20546;-81
2023/03/29 19:12:34;;;;;;;2.20;2.10;;;;;;;;;;10300830;28;20358;-82
2023/03/29 19:17:35;;;;;;;2.60;2.50;;;;;;;;;;10294972;28;20271;-81
2023/03/29 19:22:36;;;;;;;2.53;2.33;;;;;;;;;;10296281;28;20232;-80
2023/03/29 19:27:37;;;;;;;2.08;2.00;;;;;;;;;;10287536;28;20302;-80
2023/03/29 19:32:39;;;;;;;2.13;2.03;;;;;;;;;;10292716;28;20234;-80
2023/03/29 19:37:40;;;;;;;3.08;2.88;;;;;;;;;;10295680;28;20234;-80
2023/03/29 19:42:41;;;;;;;2.03;1.92;;;;;;;;;;10280646;28;20220;-79
2023/03/29 19:47:46;;;;;;;3.28;3.05;;;;;;;;;;10287411;28;20224;-80
2023/03/29 19:52:47;;;;;;;3.05;2.75;;;;;;;;;;10291337;28;22436;-82
2023/03/29 19:57:48;;;;;;;4.22;3.95;;;;;;;;;;10327844;28;20232;-79
2023/03/29 20:02:49;;;;;;;2.90;2.80;;;;;;;;;;10323826;28;21122;-80
2023/03/29 20:07:50;;;;;;;3.65;3.45;;;;;;;;;;10308639;28;20637;-80
2023/03/29 20:12:51;;;;;;;3.47;3.28;;;;;;;;;;10316691;28;20226;-80
2023/03/29 20:17:53;;;;;;;5.72;3.17;;;;;;;;;;10311194;28;20354;-79
2023/03/29 20:22:56;;;;;;;3.40;3.20;;;;;;;;;;10322006;28;20315;-80
2023/03/29 20:27:58;;;;;;;3.13;3.03;;;;;;;;;;10307072;28;20746;-79
2023/03/29 20:32:59;;;;;;;2.88;2.72;;;;;;;;;;10299702;28;20224;-80
2023/03/29 20:38:00;;;;;;;2.90;2.80;;;;;;;;;;10310919;28;20278;-80
2023/03/29 20:43:01;;;;;;;2.95;2.85;;;;;;;;;;10317584;28;20224;-80
2023/03/29 20:48:02;;;;;;;3.00;2.80;;;;;;;;;;10315531;28;20593;-80
2023/03/29 20:53:05;;;;;;;3.30;3.10;;;;;;;;;;10287499;28;20227;-80
2023/03/29 20:58:06;;;;;;;3.28;3.13;;;;;;;;;;10334259;28;20228;-80
2023/03/29 21:03:07;;;;;;;3.03;2.67;;;;;;;;;;10325250;28;20703;-79
2023/03/29 21:08:08;;;;;;;3.25;3.05;;;;;;;;;;10314228;28;20298;-79
2023/03/29 21:13:10;;;;;;;3.00;2.90;;;;;;;;;;10316066;28;20278;-81
2023/03/29 21:18:11;;;;;;;4.30;2.90;;;;;;;;;;10314612;28;20224;-80
2023/03/29 21:23:12;;;;;;;4.40;2.90;;;;;;;;;;10309654;28;20453;-80
2023/03/29 21:28:13;;;;;;;2.83;2.72;;;;;;;;;;10323114;28;20300;-78
2023/03/29 21:33:14;;;;;;;2.75;2.60;;;;;;;;;;10320977;28;20623;-80
2023/03/29 21:38:16;;;;;;;3.15;3.00;;;;;;;;;;10307838;28;21388;-82
2023/03/29 21:43:17;;;;;;;3.70;3.38;;;;;;;;;;10315395;28;20319;-79
2023/03/29 21:48:18;;;;;;;4.28;3.42;;;;;;;;;;10295527;28;20220;-82
2023/03/29 21:53:19;;;;;;;4.75;3.78;;;;;;;;;;10290574;28;20287;-81
2023/03/29 21:58:20;;;;;;;3.88;3.63;;;;;;;;;;10306611;28;22374;-80
2023/03/29 22:03:21;;;;;;;4.88;3.60;;;;;;;;;;10308161;28;22249;-81
2023/03/29 22:08:25;;;;;;;3.15;2.80;;;;;;;;;;10297359;28;20320;-82
2023/03/29 22:13:27;;;;;;;3.30;3.10;;;;;;;;;;10323812;28;20244;-81
2023/03/29 23:02:14;;;;;;;3.92;3.72;;;;;;;;;;10207469;28;20231;-81
2023/03/29 23:07:57;;;;;;;;;;;;;;;;;;;;;
2023/03/29 23:19:55;;;;;;;3.28;3.05;;;;;;;;;;10160567;28;20218;-81
2023/03/29 23:24:59;;;;;;;4.60;3.83;;;;;;;;;;10277115;28;20231;-81
2023/03/29 23:30:00;;;;;;;5.35;4.20;;;;;;;;;;10297364;28;20213;-82
2023/03/29 23:40:59;;;;;;;;;;;;;;;;;;;;;
2023/03/29 23:47:30;;;;;;;;;;;;;;;;;;;;;
2023/03/29 23:59:08;;;;;;;;;;;;;;;;;;;;;
